AirNav   TITAN Aviation Fuels
 
 1247 users online  

38I Weller Airport
Urbana, Ohio, USA

GOING TO URBANA?


FAA INFORMATION EFFECTIVE 04 NOVEMBER 2021

Location

FAA Identifier: 38I
Lat/Long: 40-05-28.2100N 083-41-21.7400W
40-05.470167N 083-41.362333W
40.0911694,-83.6893722
(estimated)
Elevation: 1150 ft. / 351 m (estimated)
Variation: 04W (1985)
From city: 3 miles SE of URBANA, OH
Time zone: UTC -4 (UTC -5 during Standard Time)
Zip code: 43078

Airport Operations

Airport use: Open to the public
Activation date: 11/1966
Control tower: no
ARTCC: INDIANAPOLIS CENTER
FSS: DAYTON FLIGHT SERVICE STATION
NOTAMs facility: DAY (NOTAM-D service available)
Attendance: UNATNDD
Wind indicator: yes
Segmented circle: no

Airport Communications

CTAF/UNICOM: 123.0
WX AWOS-3 at I74 (4 nm NW): 118.325 (937-484-5863)
WX AWOS-3PT at UYF (14 nm SE): 120.85 (740-852-2844)
WX AWOS-3PT at SGH (17 nm SW): 134.975 (937-324-4532)
WX AWOS-3 at MRT (17 nm NE): 119.275 (937-644-2967)
WX AWOS-3 at EDJ (18 nm N): 118.075 (937-599-4654)

Nearby radio navigation aids

VOR radial/distance  VOR name  Freq  Var
RODr131/20.1ROSEWOOD VORTAC117.5005W
DQNr083/32.8DAYTON VOR/DME114.5001W

 
NDB name  Hdg/Dist  Freq  Var  ID
COURT HOUSE341/32.541406WCSS -.-. ... ...

Airport Services

Parking: tiedowns
Airframe service: NONE
Powerplant service: NONE
Bottled oxygen: NONE
Bulk oxygen: NONE

Runway Information

Runway 9/27

Dimensions: 2534 x 75 ft. / 772 x 23 m
Surface: turf, in good condition
Runway edge markings: 09/27 OUTLINED WITH YELLOW TIRES.
RUNWAY 9  RUNWAY 27
Latitude: 40-05.449167N40-05.491000N
Longitude: 083-41.645000W083-41.079333W
Elevation: 1150.0 ft.1150.0 ft.
Traffic pattern: leftleft
Runway end identifier lights: nono
Obstructions: 75 ft. trees, 80 ft. right of centerline32 ft. pline, 45 ft. from runway, 138 ft. left of centerline, 1:1 slope to clear

Airport Ownership and Management from official FAA records

Ownership: Privately-owned
Owner: CHRISTOPHER COOK
4923 TROY RD
SPRINGFIELD, OH 45502
Phone 937-360-5308
ARPT PHYS LOC JUST NORTH OF 3138 EAST ROUTE 29, URBANA OH 43078.
Manager: CHRISTOPHER COOK
4923 TROY RD
SPRINGFIELD, OH 45502
Phone 937-360-5308

Airport Operational Statistics

Aircraft based on the field: 1
Single engine airplanes: 1
    
Aircraft operations: avg 25/month *
67% local general aviation
33% transient general aviation
* for 12-month period ending 07 September 2019

Additional Remarks

FOR CD CTC COLUMBUS APCH AT 614-338-8537.

Instrument Procedures

There are no published instrument procedures at 38I.

Some nearby airports with instrument procedures:

I74 - Grimes Field Airport (4 nm NW)
KUYF - Madison County Airport (14 nm SE)
KSGH - Springfield-Beckley Municipal Airport (17 nm SW)
KMRT - Union County Airport (17 nm NE)
KEDJ - Bellefontaine Regional Airport (18 nm N)
 
Loc | Ops | Rwys | IFR | FBO | Links
Com | Nav | Svcs | Stats | Notes
Area around 38I (Weller Airport)
 
Road maps at: MapQuest Bing Google
 
Aerial photo
WARNING: Photo may not be current or correct
Aerial photo of 38I (Weller Airport)
Photo taken 12-Oct-2014
looking north.

Do you have a better or more recent aerial photo of Weller Airport that you would like to share? If so, please send us your photo.

 
Sectional chart

 
Airport distance calculator
Flying to Weller Airport? Find the distance to fly.

From to 38I

Sunrise and sunset
Times for 28-Nov-2021
 Local
(UTC-5)
 Zulu
(UTC)
Morning civil twilight07:0612:06
Sunrise07:3612:36
Sunset17:1022:10
Evening civil twilight17:4022:40

Current date and time
Zulu (UTC)  28-Nov-2021 15:05:08
Local (UTC-5)  28-Nov-2021 10:05:08
 
METAR
KI74 
4nm NW 
281455Z AUTO 27009KT 10SM OVC015 02/00 A2994 RMK AO2
KUYF 
14nm SE 
281435Z AUTO 26009KT 10SM BKN013 OVC019 02/01 A2994 RMK AO2
KMRT 
17nm NE 
281455Z AUTO 27010KT 10SM SCT014 OVC020 03/00 A2993 RMK AO2 T00280002
KSGH 
17nm S 
281456Z AUTO 28010KT 10SM OVC014 02/01 A2995 RMK AO2 SLP152 6//// T00220011 51007 FZRANO PNO $
KEDJ 
18nm N 
281435Z AUTO 29010KT 10SM 02/00 A2993 RMK AO1
TAF
KFFO 
23nm SW 
281100Z 2811/2917 29010G15KT 9999 SCT010 BKN014 620144 QNH2990INS BECMG 2814/2815 30012G22KT 9999 OVC020 620204 QNH2994INS BECMG 2821/2822 30009KT 9999 SCT022 QNH2995INS BECMG 2905/2906 30006KT 9999 SCT017 BKN024 510703 QNH3006INS BECMG 2911/2912 VRB06KT 9999 FEW010 SCT017 QNH3010INS TX03/2811Z TNM02/2906Z
KDAY 
27nm SW 
281120Z 2812/2912 28012KT P6SM OVC014 FM281700 28014G24KT P6SM BKN022 FM281900 28014G24KT P6SM SCT035 FM282300 30012G18KT P6SM FEW250 FM290300 28010KT P6SM FEW250 FM290800 28005KT P6SM FEW250
NOTAMs
Click for the latest NOTAMs
NOTAMs are issued by the DoD/FAA and will open in a separate window not controlled by AirNav.

 

 
 

Would you like to see your business listed on this page?

 If your business provides an interesting product or service to pilots, flight crews, aircraft, or users of the Weller Airport, you should consider listing it here.  To start the listing process, click on the button below
 
Add a business
 

Other Pages about Weller Airport

Update a link
 
Copyright © AirNav, LLC. All rights reserved. Privacy Policy  Contact